4XCWC LLHA-LLHA
Flight info
| Callsign | 4XCWC |
|---|---|
| Flight time | 0h 18m |
| Altitude | 800 |
| Route | CVFR |
| Aircraft | C172/L-VD/A |
Departure
| Time | 2026-04-14 13:04 |
|---|---|
| Airport | Uri Michaeli Haifa International Airport (LLHA) |
Arrival
| Time | 2026-04-14 13:22 |
|---|---|
| Airport | Uri Michaeli Haifa International Airport (LLHA) |
| Time | Latitude | Longitude | Altitude | Speed | Heading |
|---|---|---|---|---|---|
| 2026-04-14 12:57 | 32.81128 | 35.04203 | 20 ft | 0 kts | 340° |
| 2026-04-14 13:02 | 32.81150 | 35.04212 | 20 ft | 6 kts | 75° |
| 2026-04-14 13:02 | 32.81164 | 35.04261 | 21 ft | 5 kts | 67° |
| 2026-04-14 13:02 | 32.81251 | 35.04269 | 24 ft | 24 kts | 346° |
| 2026-04-14 13:02 | 32.81436 | 35.04192 | 25 ft | 24 kts | 341° |
| 2026-04-14 13:03 | 32.81544 | 35.04150 | 28 ft | 10 kts | 274° |
| 2026-04-14 13:03 | 32.81488 | 35.04169 | 27 ft | 21 kts | 159° |
| 2026-04-14 13:03 | 32.81179 | 35.04303 | 22 ft | 73 kts | 160° |
| 2026-04-14 13:03 | 32.80597 | 35.04558 | 129 ft | 94 kts | 159° |
| 2026-04-14 13:04 | 32.79972 | 35.04778 | 348 ft | 94 kts | 167° |
| 2026-04-14 13:04 | 32.79334 | 35.04981 | 549 ft | 97 kts | 160° |
| 2026-04-14 13:04 | 32.78721 | 35.05398 | 697 ft | 103 kts | 142° |
| 2026-04-14 13:04 | 32.78421 | 35.05672 | 778 ft | 106 kts | 131° |
| 2026-04-14 13:05 | 32.78410 | 35.06210 | 937 ft | 92 kts | 57° |
| 2026-04-14 13:05 | 32.78824 | 35.06918 | 805 ft | 106 kts | 51° |
| 2026-04-14 13:05 | 32.79282 | 35.07484 | 826 ft | 86 kts | 13° |
| 2026-04-14 13:05 | 32.79690 | 35.06977 | 838 ft | 106 kts | 302° |
| 2026-04-14 13:06 | 32.80210 | 35.06386 | 844 ft | 103 kts | 332° |
| 2026-04-14 13:06 | 32.80857 | 35.06020 | 817 ft | 105 kts | 342° |
| 2026-04-14 13:06 | 32.81578 | 35.05795 | 804 ft | 102 kts | 349° |
| 2026-04-14 13:06 | 32.82199 | 35.05493 | 858 ft | 89 kts | 322° |
| 2026-04-14 13:07 | 32.82625 | 35.04926 | 768 ft | 99 kts | 318° |
| 2026-04-14 13:07 | 32.82728 | 35.04231 | 590 ft | 102 kts | 226° |
| 2026-04-14 13:07 | 32.82055 | 35.03964 | 295 ft | 95 kts | 176° |
| 2026-04-14 13:07 | 32.81458 | 35.04175 | 27 ft | 83 kts | 157° |
| 2026-04-14 13:08 | 32.80948 | 35.04404 | 23 ft | 91 kts | 160° |
| 2026-04-14 13:08 | 32.80351 | 35.04659 | 200 ft | 98 kts | 165° |
| 2026-04-14 13:08 | 32.79672 | 35.04859 | 383 ft | 102 kts | 165° |
| 2026-04-14 13:08 | 32.79013 | 35.05138 | 589 ft | 102 kts | 148° |
| 2026-04-14 13:09 | 32.78445 | 35.05597 | 875 ft | 93 kts | 130° |
| 2026-04-14 13:09 | 32.78260 | 35.06281 | 889 ft | 101 kts | 54° |
| 2026-04-14 13:09 | 32.78769 | 35.06920 | 886 ft | 111 kts | 43° |
| 2026-04-14 13:09 | 32.79285 | 35.07468 | 879 ft | 93 kts | 32° |
| 2026-04-14 13:10 | 32.79858 | 35.07446 | 878 ft | 90 kts | 330° |
| 2026-04-14 13:10 | 32.80381 | 35.06999 | 813 ft | 95 kts | 328° |
| 2026-04-14 13:10 | 32.80924 | 35.06537 | 761 ft | 96 kts | 329° |
| 2026-04-14 13:10 | 32.81480 | 35.06106 | 728 ft | 95 kts | 333° |
| 2026-04-14 13:11 | 32.82034 | 35.05696 | 719 ft | 93 kts | 324° |
| 2026-04-14 13:11 | 32.82214 | 35.05498 | 717 ft | 92 kts | 320° |
| 2026-04-14 13:12 | 32.82658 | 35.04989 | 586 ft | 87 kts | 319° |
| 2026-04-14 13:12 | 32.82920 | 35.04443 | 492 ft | 77 kts | 268° |
| 2026-04-14 13:12 | 32.82521 | 35.03946 | 332 ft | 96 kts | 194° |
| 2026-04-14 13:13 | 32.81897 | 35.03998 | 170 ft | 86 kts | 166° |
| 2026-04-14 13:13 | 32.81362 | 35.04224 | 24 ft | 73 kts | 160° |
| 2026-04-14 13:13 | 32.80814 | 35.04461 | 43 ft | 97 kts | 159° |
| 2026-04-14 13:13 | 32.80182 | 35.04709 | 267 ft | 99 kts | 171° |
| 2026-04-14 13:14 | 32.79501 | 35.04865 | 457 ft | 101 kts | 162° |
| 2026-04-14 13:14 | 32.78862 | 35.05257 | 607 ft | 107 kts | 144° |
| 2026-04-14 13:14 | 32.78279 | 35.05807 | 794 ft | 108 kts | 134° |
| 2026-04-14 13:14 | 32.78276 | 35.06524 | 907 ft | 101 kts | 39° |
| 2026-04-14 13:15 | 32.78817 | 35.07053 | 953 ft | 97 kts | 37° |
| 2026-04-14 13:15 | 32.79369 | 35.07474 | 962 ft | 91 kts | 12° |
| 2026-04-14 13:15 | 32.79927 | 35.07180 | 894 ft | 91 kts | 330° |
| 2026-04-14 13:15 | 32.80482 | 35.06795 | 840 ft | 94 kts | 334° |
| 2026-04-14 13:16 | 32.81058 | 35.06427 | 791 ft | 94 kts | 331° |
| 2026-04-14 13:16 | 32.81638 | 35.06040 | 689 ft | 98 kts | 339° |
| 2026-04-14 13:16 | 32.82132 | 35.05592 | 744 ft | 91 kts | 321° |
| 2026-04-14 13:16 | 32.82561 | 35.05032 | 706 ft | 94 kts | 316° |
| 2026-04-14 13:17 | 32.82935 | 35.04482 | 718 ft | 80 kts | 291° |
| 2026-04-14 13:17 | 32.82674 | 35.03844 | 433 ft | 98 kts | 220° |
| 2026-04-14 13:17 | 32.82063 | 35.03911 | 238 ft | 88 kts | 160° |
| 2026-04-14 13:17 | 32.81504 | 35.04160 | 31 ft | 82 kts | 159° |
| 2026-04-14 13:18 | 32.80979 | 35.04393 | 23 ft | 94 kts | 158° |
| 2026-04-14 13:18 | 32.80340 | 35.04640 | 222 ft | 99 kts | 162° |
| 2026-04-14 13:18 | 32.79686 | 35.04863 | 435 ft | 99 kts | 164° |
| 2026-04-14 13:18 | 32.79029 | 35.05130 | 592 ft | 103 kts | 150° |
| 2026-04-14 13:19 | 32.78410 | 35.05595 | 764 ft | 106 kts | 141° |
| 2026-04-14 13:19 | 32.78143 | 35.06212 | 1027 ft | 88 kts | 54° |
| 2026-04-14 13:19 | 32.78610 | 35.06724 | 1160 ft | 93 kts | 36° |
| 2026-04-14 13:19 | 32.79214 | 35.07133 | 1193 ft | 102 kts | 27° |
| 2026-04-14 13:20 | 32.79860 | 35.07117 | 1176 ft | 100 kts | 329° |
| 2026-04-14 13:20 | 32.80466 | 35.06659 | 1056 ft | 104 kts | 331° |
| 2026-04-14 13:20 | 32.81071 | 35.06224 | 975 ft | 101 kts | 332° |
| 2026-04-14 13:20 | 32.81670 | 35.05789 | 902 ft | 100 kts | 331° |
| 2026-04-14 13:21 | 32.82216 | 35.05359 | 787 ft | 88 kts | 326° |
| 2026-04-14 13:21 | 32.82616 | 35.04854 | 642 ft | 82 kts | 317° |
| 2026-04-14 13:21 | 32.82886 | 35.04313 | 569 ft | 73 kts | 272° |
| 2026-04-14 13:21 | 32.82608 | 35.03767 | 336 ft | 85 kts | 209° |
| 2026-04-14 13:22 | 32.82059 | 35.03901 | 154 ft | 79 kts | 157° |
| 2026-04-14 13:22 | 32.81554 | 35.04134 | 39 ft | 79 kts | 158° |
| 2026-04-14 13:22 | 32.81168 | 35.04287 | 22 ft | 28 kts | 155° |
| 2026-04-14 13:22 | 32.81153 | 35.04291 | 21 ft | 2 kts | 300° |
| 2026-04-14 13:23 | 32.81157 | 35.04236 | 21 ft | 8 kts | 252° |
| 2026-04-14 13:23 | 32.81142 | 35.04180 | 20 ft | 6 kts | 258° |
| 2026-04-14 13:23 | 32.81162 | 35.04150 | 19 ft | 3 kts | 26° |
| 2026-04-14 13:23 | 32.81166 | 35.04164 | 20 ft | 3 kts | 110° |
| 2026-04-14 13:24 | 32.81163 | 35.04168 | 20 ft | 0 kts | 147° |